sensor_id;sensor_type;location;lat;lon;timestamp;P1;durP1;ratioP1;P2;durP2;ratioP2
37231;SDS011;23125;48.156;15.954;2023-03-01T00:01:07;18.58;;;10.18;;
37231;SDS011;23125;48.156;15.954;2023-03-01T00:03:42;14.68;;;9.45;;
37231;SDS011;23125;48.156;15.954;2023-03-01T00:06:08;18.13;;;10.07;;
37231;SDS011;23125;48.156;15.954;2023-03-01T00:08:34;17.20;;;9.50;;
37231;SDS011;23125;48.156;15.954;2023-03-01T00:11:04;18.23;;;9.85;;
37231;SDS011;23125;48.156;15.954;2023-03-01T00:13:37;17.30;;;9.68;;
37231;SDS011;23125;48.156;15.954;2023-03-01T00:16:04;18.50;;;9.95;;
37231;SDS011;23125;48.156;15.954;2023-03-01T00:18:31;16.92;;;9.27;;
37231;SDS011;23125;48.156;15.954;2023-03-01T00:20:58;15.15;;;8.70;;
37231;SDS011;23125;48.156;15.954;2023-03-01T00:23:24;16.95;;;10.10;;
37231;SDS011;23125;48.156;15.954;2023-03-01T00:25:51;15.90;;;9.40;;
37231;SDS011;23125;48.156;15.954;2023-03-01T00:28:18;16.75;;;9.25;;
37231;SDS011;23125;48.156;15.954;2023-03-01T00:30:45;17.23;;;10.18;;
37231;SDS011;23125;48.156;15.954;2023-03-01T00:33:11;19.30;;;9.75;;
37231;SDS011;23125;48.156;15.954;2023-03-01T00:35:37;19.25;;;9.50;;
37231;SDS011;23125;48.156;15.954;2023-03-01T00:38:04;18.40;;;10.10;;
37231;SDS011;23125;48.156;15.954;2023-03-01T00:40:31;18.25;;;9.52;;
37231;SDS011;23125;48.156;15.954;2023-03-01T00:42:58;17.87;;;9.33;;
37231;SDS011;23125;48.156;15.954;2023-03-01T00:45:24;17.60;;;9.70;;
37231;SDS011;23125;48.156;15.954;2023-03-01T00:47:50;16.92;;;9.35;;
37231;SDS011;23125;48.156;15.954;2023-03-01T00:50:17;17.08;;;9.75;;
37231;SDS011;23125;48.156;15.954;2023-03-01T00:52:43;17.83;;;10.45;;
37231;SDS011;23125;48.156;15.954;2023-03-01T00:55:09;18.30;;;10.23;;
37231;SDS011;23125;48.156;15.954;2023-03-01T00:57:36;19.55;;;10.23;;
37231;SDS011;23125;48.156;15.954;2023-03-01T01:00:03;20.35;;;9.85;;
37231;SDS011;23125;48.156;15.954;2023-03-01T01:02:32;17.63;;;9.68;;
37231;SDS011;23125;48.156;15.954;2023-03-01T01:04:58;18.83;;;9.70;;
37231;SDS011;23125;48.156;15.954;2023-03-01T01:07:24;18.48;;;10.30;;
37231;SDS011;23125;48.156;15.954;2023-03-01T01:09:50;20.63;;;10.88;;
37231;SDS011;23125;48.156;15.954;2023-03-01T01:12:16;21.35;;;11.63;;
37231;SDS011;23125;48.156;15.954;2023-03-01T01:14:42;21.02;;;11.10;;
37231;SDS011;23125;48.156;15.954;2023-03-01T01:17:08;21.52;;;10.80;;
37231;SDS011;23125;48.156;15.954;2023-03-01T01:19:34;18.38;;;10.60;;
37231;SDS011;23125;48.156;15.954;2023-03-01T01:22:00;19.88;;;11.07;;
37231;SDS011;23125;48.156;15.954;2023-03-01T01:24:25;20.50;;;10.80;;
37231;SDS011;23125;48.156;15.954;2023-03-01T01:26:51;19.30;;;11.02;;
37231;SDS011;23125;48.156;15.954;2023-03-01T01:29:17;18.42;;;10.45;;
37231;SDS011;23125;48.156;15.954;2023-03-01T01:31:43;22.10;;;11.25;;
37231;SDS011;23125;48.156;15.954;2023-03-01T01:34:12;22.35;;;11.95;;
37231;SDS011;23125;48.156;15.954;2023-03-01T01:36:41;22.33;;;12.25;;
37231;SDS011;23125;48.156;15.954;2023-03-01T01:39:07;21.88;;;11.05;;
37231;SDS011;23125;48.156;15.954;2023-03-01T01:41:39;22.23;;;11.13;;
37231;SDS011;23125;48.156;15.954;2023-03-01T01:46:56;21.85;;;11.50;;
37231;SDS011;23125;48.156;15.954;2023-03-01T01:54:44;19.38;;;10.70;;
37231;SDS011;23125;48.156;15.954;2023-03-01T01:57:43;21.55;;;10.63;;
37231;SDS011;23125;48.156;15.954;2023-03-01T02:00:13;21.90;;;10.73;;
37231;SDS011;23125;48.156;15.954;2023-03-01T02:02:42;21.27;;;12.00;;
37231;SDS011;23125;48.156;15.954;2023-03-01T02:05:14;23.50;;;12.18;;
37231;SDS011;23125;48.156;15.954;2023-03-01T02:07:48;26.30;;;12.32;;
37231;SDS011;23125;48.156;15.954;2023-03-01T02:10:14;24.23;;;13.27;;
37231;SDS011;23125;48.156;15.954;2023-03-01T02:12:41;29.75;;;14.93;;
37231;SDS011;23125;48.156;15.954;2023-03-01T02:15:07;27.33;;;15.02;;
37231;SDS011;23125;48.156;15.954;2023-03-01T02:17:33;28.73;;;14.73;;
37231;SDS011;23125;48.156;15.954;2023-03-01T02:22:38;25.98;;;13.68;;
37231;SDS011;23125;48.156;15.954;2023-03-01T02:27:54;20.50;;;11.88;;
37231;SDS011;23125;48.156;15.954;2023-03-01T02:30:23;26.70;;;13.27;;
37231;SDS011;23125;48.156;15.954;2023-03-01T02:32:51;24.42;;;13.52;;
37231;SDS011;23125;48.156;15.954;2023-03-01T02:35:19;20.58;;;12.23;;
37231;SDS011;23125;48.156;15.954;2023-03-01T02:37:46;25.33;;;12.80;;
37231;SDS011;23125;48.156;15.954;2023-03-01T02:40:14;20.00;;;11.77;;
37231;SDS011;23125;48.156;15.954;2023-03-01T02:42:50;22.67;;;12.07;;
37231;SDS011;23125;48.156;15.954;2023-03-01T02:45:19;22.27;;;12.32;;
37231;SDS011;23125;48.156;15.954;2023-03-01T02:47:46;26.45;;;12.57;;
37231;SDS011;23125;48.156;15.954;2023-03-01T02:50:56;22.55;;;12.10;;
37231;SDS011;23125;48.156;15.954;2023-03-01T02:53:21;23.60;;;12.15;;
37231;SDS011;23125;48.156;15.954;2023-03-01T02:55:55;24.75;;;12.20;;
37231;SDS011;23125;48.156;15.954;2023-03-01T02:58:21;21.05;;;11.93;;
37231;SDS011;23125;48.156;15.954;2023-03-01T03:00:47;23.58;;;11.95;;
37231;SDS011;23125;48.156;15.954;2023-03-01T03:03:14;23.13;;;12.70;;
37231;SDS011;23125;48.156;15.954;2023-03-01T03:05:42;22.50;;;12.07;;
37231;SDS011;23125;48.156;15.954;2023-03-01T03:08:08;25.13;;;13.38;;
37231;SDS011;23125;48.156;15.954;2023-03-01T03:10:36;21.58;;;11.25;;
37231;SDS011;23125;48.156;15.954;2023-03-01T03:13:06;20.27;;;12.23;;
37231;SDS011;23125;48.156;15.954;2023-03-01T03:15:34;24.63;;;13.07;;
37231;SDS011;23125;48.156;15.954;2023-03-01T03:18:05;25.88;;;12.98;;
37231;SDS011;23125;48.156;15.954;2023-03-01T03:20:33;25.15;;;13.00;;
37231;SDS011;23125;48.156;15.954;2023-03-01T03:22:59;21.88;;;12.60;;
37231;SDS011;23125;48.156;15.954;2023-03-01T03:25:26;22.08;;;12.25;;
37231;SDS011;23125;48.156;15.954;2023-03-01T03:27:54;22.60;;;13.40;;
37231;SDS011;23125;48.156;15.954;2023-03-01T03:30:23;25.45;;;13.02;;
37231;SDS011;23125;48.156;15.954;2023-03-01T03:32:50;25.38;;;13.32;;
37231;SDS011;23125;48.156;15.954;2023-03-01T03:35:20;25.52;;;13.68;;
37231;SDS011;23125;48.156;15.954;2023-03-01T03:37:55;22.85;;;13.63;;
37231;SDS011;23125;48.156;15.954;2023-03-01T03:40:30;26.90;;;13.30;;
37231;SDS011;23125;48.156;15.954;2023-03-01T03:42:58;44.35;;;19.10;;
37231;SDS011;23125;48.156;15.954;2023-03-01T03:45:25;29.73;;;15.85;;
37231;SDS011;23125;48.156;15.954;2023-03-01T03:47:51;35.08;;;17.33;;
37231;SDS011;23125;48.156;15.954;2023-03-01T03:50:17;30.27;;;16.65;;
37231;SDS011;23125;48.156;15.954;2023-03-01T03:52:43;29.67;;;15.00;;
37231;SDS011;23125;48.156;15.954;2023-03-01T03:55:10;24.02;;;13.23;;
37231;SDS011;23125;48.156;15.954;2023-03-01T03:57:38;24.52;;;12.30;;
37231;SDS011;23125;48.156;15.954;2023-03-01T04:00:05;19.42;;;11.18;;
37231;SDS011;23125;48.156;15.954;2023-03-01T04:02:43;24.67;;;13.30;;
37231;SDS011;23125;48.156;15.954;2023-03-01T04:05:10;21.77;;;12.57;;
37231;SDS011;23125;48.156;15.954;2023-03-01T04:07:38;24.42;;;12.90;;
37231;SDS011;23125;48.156;15.954;2023-03-01T04:10:05;24.35;;;13.68;;
37231;SDS011;23125;48.156;15.954;2023-03-01T04:12:34;23.25;;;13.13;;
37231;SDS011;23125;48.156;15.954;2023-03-01T04:15:03;21.85;;;13.45;;
37231;SDS011;23125;48.156;15.954;2023-03-01T04:17:39;23.83;;;13.27;;
37231;SDS011;23125;48.156;15.954;2023-03-01T04:20:10;23.98;;;13.52;;
37231;SDS011;23125;48.156;15.954;2023-03-01T04:22:38;23.95;;;13.85;;
37231;SDS011;23125;48.156;15.954;2023-03-01T04:25:05;24.40;;;12.88;;
37231;SDS011;23125;48.156;15.954;2023-03-01T04:27:35;24.85;;;14.20;;
37231;SDS011;23125;48.156;15.954;2023-03-01T04:30:03;23.50;;;12.93;;
37231;SDS011;23125;48.156;15.954;2023-03-01T04:32:30;21.92;;;13.25;;
37231;SDS011;23125;48.156;15.954;2023-03-01T04:34:56;23.60;;;13.05;;
37231;SDS011;23125;48.156;15.954;2023-03-01T04:37:23;24.35;;;13.02;;
37231;SDS011;23125;48.156;15.954;2023-03-01T04:39:49;23.90;;;13.25;;
37231;SDS011;23125;48.156;15.954;2023-03-01T04:42:15;29.33;;;14.30;;
37231;SDS011;23125;48.156;15.954;2023-03-01T04:44:42;27.85;;;15.30;;
37231;SDS011;23125;48.156;15.954;2023-03-01T04:47:08;28.23;;;16.10;;
37231;SDS011;23125;48.156;15.954;2023-03-01T04:49:34;25.35;;;16.77;;
37231;SDS011;23125;48.156;15.954;2023-03-01T04:52:00;25.38;;;14.52;;
37231;SDS011;23125;48.156;15.954;2023-03-01T04:54:29;27.90;;;15.97;;
37231;SDS011;23125;48.156;15.954;2023-03-01T04:56:57;29.88;;;16.15;;
37231;SDS011;23125;48.156;15.954;2023-03-01T04:59:24;30.52;;;16.23;;
37231;SDS011;23125;48.156;15.954;2023-03-01T05:01:51;27.35;;;15.40;;
37231;SDS011;23125;48.156;15.954;2023-03-01T05:04:21;29.10;;;15.25;;
37231;SDS011;23125;48.156;15.954;2023-03-01T05:06:47;27.05;;;16.02;;
37231;SDS011;23125;48.156;15.954;2023-03-01T05:09:13;26.13;;;14.90;;
37231;SDS011;23125;48.156;15.954;2023-03-01T05:11:39;27.95;;;15.25;;
37231;SDS011;23125;48.156;15.954;2023-03-01T05:14:06;25.15;;;15.43;;
37231;SDS011;23125;48.156;15.954;2023-03-01T05:16:34;38.03;;;17.88;;
37231;SDS011;23125;48.156;15.954;2023-03-01T05:19:01;29.92;;;17.08;;
37231;SDS011;23125;48.156;15.954;2023-03-01T05:21:41;30.10;;;16.57;;
37231;SDS011;23125;48.156;15.954;2023-03-01T05:24:28;35.10;;;20.52;;
37231;SDS011;23125;48.156;15.954;2023-03-01T05:26:55;37.25;;;19.02;;
37231;SDS011;23125;48.156;15.954;2023-03-01T05:29:21;31.33;;;17.73;;
37231;SDS011;23125;48.156;15.954;2023-03-01T05:31:52;33.88;;;17.15;;
37231;SDS011;23125;48.156;15.954;2023-03-01T05:34:22;28.88;;;16.73;;
37231;SDS011;23125;48.156;15.954;2023-03-01T05:36:56;30.58;;;16.70;;
37231;SDS011;23125;48.156;15.954;2023-03-01T05:39:23;28.55;;;16.67;;
37231;SDS011;23125;48.156;15.954;2023-03-01T05:41:54;34.00;;;17.35;;
37231;SDS011;23125;48.156;15.954;2023-03-01T05:44:22;29.50;;;17.13;;
37231;SDS011;23125;48.156;15.954;2023-03-01T05:46:50;36.50;;;19.90;;
37231;SDS011;23125;48.156;15.954;2023-03-01T05:49:16;31.30;;;16.95;;
37231;SDS011;23125;48.156;15.954;2023-03-01T05:51:43;30.90;;;17.35;;
37231;SDS011;23125;48.156;15.954;2023-03-01T05:54:14;36.13;;;19.70;;
37231;SDS011;23125;48.156;15.954;2023-03-01T05:56:41;35.40;;;19.08;;
37231;SDS011;23125;48.156;15.954;2023-03-01T05:59:07;30.70;;;17.85;;
37231;SDS011;23125;48.156;15.954;2023-03-01T06:01:33;32.95;;;17.13;;
37231;SDS011;23125;48.156;15.954;2023-03-01T06:04:00;31.15;;;17.45;;
37231;SDS011;23125;48.156;15.954;2023-03-01T06:06:27;44.22;;;20.92;;
37231;SDS011;23125;48.156;15.954;2023-03-01T06:08:53;40.70;;;20.77;;
37231;SDS011;23125;48.156;15.954;2023-03-01T06:11:19;39.67;;;20.10;;
37231;SDS011;23125;48.156;15.954;2023-03-01T06:13:46;39.67;;;19.95;;
37231;SDS011;23125;48.156;15.954;2023-03-01T06:16:13;43.03;;;20.95;;
37231;SDS011;23125;48.156;15.954;2023-03-01T06:18:40;46.15;;;24.17;;
37231;SDS011;23125;48.156;15.954;2023-03-01T06:21:06;45.78;;;23.45;;
37231;SDS011;23125;48.156;15.954;2023-03-01T06:23:33;55.08;;;26.42;;
37231;SDS011;23125;48.156;15.954;2023-03-01T06:25:59;43.75;;;22.73;;
37231;SDS011;23125;48.156;15.954;2023-03-01T06:28:29;47.08;;;23.40;;
37231;SDS011;23125;48.156;15.954;2023-03-01T06:30:55;47.08;;;24.30;;
37231;SDS011;23125;48.156;15.954;2023-03-01T06:33:21;50.03;;;24.70;;
37231;SDS011;23125;48.156;15.954;2023-03-01T06:35:49;40.92;;;21.25;;
37231;SDS011;23125;48.156;15.954;2023-03-01T06:38:15;40.75;;;19.48;;
37231;SDS011;23125;48.156;15.954;2023-03-01T06:40:44;35.22;;;18.77;;
37231;SDS011;23125;48.156;15.954;2023-03-01T06:43:16;33.55;;;17.02;;
37231;SDS011;23125;48.156;15.954;2023-03-01T06:45:42;31.63;;;17.80;;
37231;SDS011;23125;48.156;15.954;2023-03-01T06:48:08;33.00;;;17.15;;
37231;SDS011;23125;48.156;15.954;2023-03-01T06:50:34;26.25;;;15.68;;
37231;SDS011;23125;48.156;15.954;2023-03-01T06:53:01;35.58;;;18.40;;
37231;SDS011;23125;48.156;15.954;2023-03-01T06:55:28;31.08;;;18.02;;
37231;SDS011;23125;48.156;15.954;2023-03-01T06:57:55;28.48;;;15.75;;
37231;SDS011;23125;48.156;15.954;2023-03-01T07:00:22;30.85;;;16.75;;
37231;SDS011;23125;48.156;15.954;2023-03-01T07:02:49;32.55;;;17.25;;
37231;SDS011;23125;48.156;15.954;2023-03-01T07:05:15;33.63;;;17.90;;
37231;SDS011;23125;48.156;15.954;2023-03-01T07:07:41;36.63;;;18.08;;
37231;SDS011;23125;48.156;15.954;2023-03-01T07:10:07;36.85;;;19.67;;
37231;SDS011;23125;48.156;15.954;2023-03-01T07:12:34;34.67;;;18.75;;
37231;SDS011;23125;48.156;15.954;2023-03-01T07:15:00;30.15;;;17.45;;
37231;SDS011;23125;48.156;15.954;2023-03-01T07:17:26;37.28;;;17.50;;
37231;SDS011;23125;48.156;15.954;2023-03-01T07:19:52;34.80;;;18.40;;
37231;SDS011;23125;48.156;15.954;2023-03-01T07:22:17;34.55;;;19.17;;
37231;SDS011;23125;48.156;15.954;2023-03-01T07:24:43;32.72;;;19.35;;
37231;SDS011;23125;48.156;15.954;2023-03-01T07:27:10;36.00;;;19.52;;
37231;SDS011;23125;48.156;15.954;2023-03-01T07:29:36;33.88;;;19.38;;
37231;SDS011;23125;48.156;15.954;2023-03-01T07:32:02;34.80;;;19.02;;
37231;SDS011;23125;48.156;15.954;2023-03-01T07:34:29;32.72;;;19.20;;
37231;SDS011;23125;48.156;15.954;2023-03-01T07:36:55;37.28;;;18.88;;
37231;SDS011;23125;48.156;15.954;2023-03-01T07:39:21;33.85;;;18.73;;
37231;SDS011;23125;48.156;15.954;2023-03-01T07:41:48;34.28;;;19.38;;
37231;SDS011;23125;48.156;15.954;2023-03-01T07:44:15;34.67;;;19.42;;
37231;SDS011;23125;48.156;15.954;2023-03-01T07:46:43;31.30;;;18.77;;
37231;SDS011;23125;48.156;15.954;2023-03-01T07:49:09;35.78;;;19.77;;
37231;SDS011;23125;48.156;15.954;2023-03-01T07:51:35;37.53;;;21.05;;
37231;SDS011;23125;48.156;15.954;2023-03-01T07:54:01;35.08;;;19.55;;
37231;SDS011;23125;48.156;15.954;2023-03-01T07:56:27;34.10;;;18.42;;
37231;SDS011;23125;48.156;15.954;2023-03-01T07:58:54;37.03;;;20.23;;
37231;SDS011;23125;48.156;15.954;2023-03-01T08:01:20;33.17;;;20.70;;
37231;SDS011;23125;48.156;15.954;2023-03-01T08:03:47;38.10;;;22.80;;
37231;SDS011;23125;48.156;15.954;2023-03-01T08:06:14;34.58;;;20.45;;
37231;SDS011;23125;48.156;15.954;2023-03-01T08:08:42;36.00;;;21.52;;
37231;SDS011;23125;48.156;15.954;2023-03-01T08:11:10;31.85;;;20.42;;
37231;SDS011;23125;48.156;15.954;2023-03-01T08:13:38;37.05;;;19.48;;
37231;SDS011;23125;48.156;15.954;2023-03-01T08:16:05;34.25;;;19.92;;
37231;SDS011;23125;48.156;15.954;2023-03-01T08:18:39;36.10;;;21.40;;
37231;SDS011;23125;48.156;15.954;2023-03-01T08:21:07;36.00;;;21.42;;
37231;SDS011;23125;48.156;15.954;2023-03-01T08:23:38;35.88;;;20.45;;
37231;SDS011;23125;48.156;15.954;2023-03-01T08:28:32;36.92;;;20.13;;
37231;SDS011;23125;48.156;15.954;2023-03-01T08:30:58;38.10;;;19.90;;
37231;SDS011;23125;48.156;15.954;2023-03-01T08:33:24;28.50;;;19.00;;
37231;SDS011;23125;48.156;15.954;2023-03-01T08:35:49;36.22;;;20.00;;
37231;SDS011;23125;48.156;15.954;2023-03-01T08:38:15;35.15;;;19.77;;
37231;SDS011;23125;48.156;15.954;2023-03-01T08:40:41;29.17;;;17.77;;
37231;SDS011;23125;48.156;15.954;2023-03-01T08:43:07;28.92;;;17.67;;
37231;SDS011;23125;48.156;15.954;2023-03-01T08:45:33;25.63;;;15.32;;
37231;SDS011;23125;48.156;15.954;2023-03-01T08:47:58;23.92;;;13.27;;
37231;SDS011;23125;48.156;15.954;2023-03-01T08:50:24;26.65;;;16.27;;
37231;SDS011;23125;48.156;15.954;2023-03-01T08:52:50;21.15;;;13.80;;
37231;SDS011;23125;48.156;15.954;2023-03-01T08:55:16;22.73;;;13.52;;
37231;SDS011;23125;48.156;15.954;2023-03-01T08:57:43;22.48;;;14.07;;
37231;SDS011;23125;48.156;15.954;2023-03-01T09:00:09;20.48;;;13.35;;
37231;SDS011;23125;48.156;15.954;2023-03-01T09:02:36;22.70;;;13.63;;
37231;SDS011;23125;48.156;15.954;2023-03-01T09:05:04;18.88;;;11.32;;
37231;SDS011;23125;48.156;15.954;2023-03-01T09:07:30;20.98;;;9.85;;
37231;SDS011;23125;48.156;15.954;2023-03-01T09:09:55;18.58;;;12.48;;
37231;SDS011;23125;48.156;15.954;2023-03-01T09:12:21;19.17;;;11.30;;
37231;SDS011;23125;48.156;15.954;2023-03-01T09:14:47;18.70;;;10.50;;
37231;SDS011;23125;48.156;15.954;2023-03-01T09:17:13;15.82;;;9.73;;
37231;SDS011;23125;48.156;15.954;2023-03-01T09:19:39;16.90;;;11.10;;
37231;SDS011;23125;48.156;15.954;2023-03-01T09:22:05;17.65;;;12.23;;
37231;SDS011;23125;48.156;15.954;2023-03-01T09:24:30;16.40;;;9.65;;
37231;SDS011;23125;48.156;15.954;2023-03-01T09:26:56;13.40;;;8.35;;
37231;SDS011;23125;48.156;15.954;2023-03-01T09:29:22;13.48;;;8.60;;
37231;SDS011;23125;48.156;15.954;2023-03-01T09:31:49;15.50;;;10.40;;
37231;SDS011;23125;48.156;15.954;2023-03-01T09:34:15;14.55;;;9.77;;
37231;SDS011;23125;48.156;15.954;2023-03-01T09:36:48;16.85;;;10.82;;
37231;SDS011;23125;48.156;15.954;2023-03-01T09:39:16;16.00;;;11.27;;
37231;SDS011;23125;48.156;15.954;2023-03-01T09:42:02;14.40;;;10.15;;
37231;SDS011;23125;48.156;15.954;2023-03-01T09:44:35;15.77;;;10.35;;
37231;SDS011;23125;48.156;15.954;2023-03-01T09:47:27;17.83;;;10.90;;
37231;SDS011;23125;48.156;15.954;2023-03-01T09:52:47;16.52;;;9.55;;
37231;SDS011;23125;48.156;15.954;2023-03-01T09:55:16;16.08;;;9.65;;
37231;SDS011;23125;48.156;15.954;2023-03-01T09:57:55;16.63;;;10.32;;
37231;SDS011;23125;48.156;15.954;2023-03-01T10:00:36;16.13;;;10.00;;
37231;SDS011;23125;48.156;15.954;2023-03-01T10:06:02;13.32;;;8.93;;
37231;SDS011;23125;48.156;15.954;2023-03-01T10:11:28;13.75;;;9.57;;
37231;SDS011;23125;48.156;15.954;2023-03-01T10:14:09;12.98;;;9.45;;
37231;SDS011;23125;48.156;15.954;2023-03-01T10:16:48;14.88;;;9.52;;
37231;SDS011;23125;48.156;15.954;2023-03-01T10:19:25;14.57;;;10.05;;
37231;SDS011;23125;48.156;15.954;2023-03-01T10:22:17;12.95;;;8.57;;
37231;SDS011;23125;48.156;15.954;2023-03-01T10:24:49;12.73;;;8.07;;
37231;SDS011;23125;48.156;15.954;2023-03-01T10:27:18;14.68;;;9.27;;
37231;SDS011;23125;48.156;15.954;2023-03-01T10:32:26;9.00;;;4.88;;
37231;SDS011;23125;48.156;15.954;2023-03-01T10:34:52;11.27;;;5.82;;
37231;SDS011;23125;48.156;15.954;2023-03-01T10:37:19;16.05;;;8.23;;
37231;SDS011;23125;48.156;15.954;2023-03-01T10:39:54;10.20;;;7.13;;
37231;SDS011;23125;48.156;15.954;2023-03-01T10:42:32;12.18;;;7.95;;
37231;SDS011;23125;48.156;15.954;2023-03-01T10:45:42;14.30;;;8.65;;
37231;SDS011;23125;48.156;15.954;2023-03-01T10:48:37;8.05;;;5.72;;
37231;SDS011;23125;48.156;15.954;2023-03-01T10:53:27;12.23;;;6.25;;
37231;SDS011;23125;48.156;15.954;2023-03-01T10:56:01;13.48;;;8.70;;
37231;SDS011;23125;48.156;15.954;2023-03-01T10:58:31;14.50;;;9.23;;
37231;SDS011;23125;48.156;15.954;2023-03-01T11:01:00;16.17;;;9.18;;
37231;SDS011;23125;48.156;15.954;2023-03-01T11:03:29;14.40;;;8.02;;
37231;SDS011;23125;48.156;15.954;2023-03-01T11:06:02;14.95;;;8.88;;
37231;SDS011;23125;48.156;15.954;2023-03-01T11:08:29;14.10;;;7.85;;
37231;SDS011;23125;48.156;15.954;2023-03-01T11:11:04;14.85;;;9.40;;
37231;SDS011;23125;48.156;15.954;2023-03-01T11:16:26;13.52;;;7.95;;
37231;SDS011;23125;48.156;15.954;2023-03-01T11:21:47;12.80;;;6.53;;
37231;SDS011;23125;48.156;15.954;2023-03-01T11:24:39;11.95;;;6.20;;
37231;SDS011;23125;48.156;15.954;2023-03-01T11:29:44;13.30;;;8.48;;
37231;SDS011;23125;48.156;15.954;2023-03-01T11:32:16;15.55;;;8.85;;
37231;SDS011;23125;48.156;15.954;2023-03-01T11:34:47;12.53;;;7.67;;
37231;SDS011;23125;48.156;15.954;2023-03-01T11:37:36;10.70;;;7.38;;
37231;SDS011;23125;48.156;15.954;2023-03-01T11:45:31;11.02;;;7.03;;
37231;SDS011;23125;48.156;15.954;2023-03-01T11:51:02;15.70;;;7.80;;
37231;SDS011;23125;48.156;15.954;2023-03-01T12:01:49;11.77;;;7.32;;
37231;SDS011;23125;48.156;15.954;2023-03-01T12:07:48;12.63;;;7.57;;
37231;SDS011;23125;48.156;15.954;2023-03-01T12:10:37;15.45;;;6.32;;
37231;SDS011;23125;48.156;15.954;2023-03-01T12:22:40;8.52;;;5.22;;
37231;SDS011;23125;48.156;15.954;2023-03-01T12:25:14;8.43;;;5.35;;
37231;SDS011;23125;48.156;15.954;2023-03-01T12:35:50;10.65;;;6.03;;
37231;SDS011;23125;48.156;15.954;2023-03-01T12:38:59;12.25;;;6.15;;
37231;SDS011;23125;48.156;15.954;2023-03-01T12:41:43;10.50;;;6.28;;
37231;SDS011;23125;48.156;15.954;2023-03-01T12:47:20;7.82;;;4.25;;
37231;SDS011;23125;48.156;15.954;2023-03-01T12:49:54;13.38;;;8.73;;
37231;SDS011;23125;48.156;15.954;2023-03-01T12:55:18;17.23;;;9.80;;
37231;SDS011;23125;48.156;15.954;2023-03-01T12:58:01;18.40;;;10.18;;
37231;SDS011;23125;48.156;15.954;2023-03-01T13:09:08;13.35;;;8.52;;
37231;SDS011;23125;48.156;15.954;2023-03-01T13:11:42;14.15;;;8.65;;
37231;SDS011;23125;48.156;15.954;2023-03-01T13:16:50;15.63;;;9.25;;
37231;SDS011;23125;48.156;15.954;2023-03-01T13:19:20;15.15;;;9.80;;
37231;SDS011;23125;48.156;15.954;2023-03-01T13:21:48;15.95;;;7.93;;
37231;SDS011;23125;48.156;15.954;2023-03-01T13:32:31;17.55;;;10.60;;
37231;SDS011;23125;48.156;15.954;2023-03-01T13:37:40;12.85;;;6.95;;
37231;SDS011;23125;48.156;15.954;2023-03-01T13:42:53;12.55;;;7.47;;
37231;SDS011;23125;48.156;15.954;2023-03-01T13:48:09;17.02;;;10.35;;
37231;SDS011;23125;48.156;15.954;2023-03-01T13:50:54;15.52;;;8.55;;
37231;SDS011;23125;48.156;15.954;2023-03-01T13:53:26;15.70;;;9.10;;
37231;SDS011;23125;48.156;15.954;2023-03-01T13:56:07;14.85;;;7.70;;
37231;SDS011;23125;48.156;15.954;2023-03-01T13:58:56;17.75;;;8.98;;
37231;SDS011;23125;48.156;15.954;2023-03-01T14:01:38;13.73;;;9.23;;
37231;SDS011;23125;48.156;15.954;2023-03-01T14:06:51;12.05;;;8.38;;
37231;SDS011;23125;48.156;15.954;2023-03-01T14:09:33;13.70;;;7.47;;
37231;SDS011;23125;48.156;15.954;2023-03-01T14:12:13;15.32;;;7.95;;
37231;SDS011;23125;48.156;15.954;2023-03-01T14:17:28;17.90;;;9.55;;
37231;SDS011;23125;48.156;15.954;2023-03-01T14:19:59;13.60;;;9.02;;
37231;SDS011;23125;48.156;15.954;2023-03-01T14:22:33;13.63;;;8.18;;
37231;SDS011;23125;48.156;15.954;2023-03-01T14:25:02;14.85;;;9.68;;
37231;SDS011;23125;48.156;15.954;2023-03-01T14:27:42;20.52;;;10.70;;
37231;SDS011;23125;48.156;15.954;2023-03-01T14:30:13;16.02;;;8.73;;
37231;SDS011;23125;48.156;15.954;2023-03-01T14:32:58;18.42;;;10.07;;
37231;SDS011;23125;48.156;15.954;2023-03-01T14:35:27;20.58;;;11.93;;
37231;SDS011;23125;48.156;15.954;2023-03-01T14:37:55;19.20;;;11.80;;
37231;SDS011;23125;48.156;15.954;2023-03-01T14:40:22;17.83;;;11.32;;
37231;SDS011;23125;48.156;15.954;2023-03-01T14:42:55;18.42;;;12.32;;
37231;SDS011;23125;48.156;15.954;2023-03-01T14:45:24;18.58;;;12.00;;
37231;SDS011;23125;48.156;15.954;2023-03-01T14:47:52;18.65;;;12.10;;
37231;SDS011;23125;48.156;15.954;2023-03-01T14:50:25;20.92;;;13.30;;
37231;SDS011;23125;48.156;15.954;2023-03-01T14:53:06;22.75;;;12.45;;
37231;SDS011;23125;48.156;15.954;2023-03-01T14:55:41;18.60;;;12.55;;
37231;SDS011;23125;48.156;15.954;2023-03-01T14:58:15;21.38;;;12.65;;
37231;SDS011;23125;48.156;15.954;2023-03-01T15:00:48;19.35;;;12.82;;
37231;SDS011;23125;48.156;15.954;2023-03-01T15:03:24;19.58;;;12.50;;
37231;SDS011;23125;48.156;15.954;2023-03-01T15:06:05;20.52;;;12.90;;
37231;SDS011;23125;48.156;15.954;2023-03-01T15:08:33;19.95;;;13.07;;
37231;SDS011;23125;48.156;15.954;2023-03-01T15:13:32;20.95;;;12.38;;
37231;SDS011;23125;48.156;15.954;2023-03-01T15:19:06;19.27;;;12.10;;
37231;SDS011;23125;48.156;15.954;2023-03-01T15:21:33;18.55;;;12.23;;
37231;SDS011;23125;48.156;15.954;2023-03-01T15:24:06;17.55;;;10.45;;
37231;SDS011;23125;48.156;15.954;2023-03-01T15:26:50;17.95;;;11.55;;
37231;SDS011;23125;48.156;15.954;2023-03-01T15:29:26;17.70;;;10.25;;
37231;SDS011;23125;48.156;15.954;2023-03-01T15:32:02;17.45;;;11.05;;
37231;SDS011;23125;48.156;15.954;2023-03-01T15:34:31;19.45;;;11.75;;
37231;SDS011;23125;48.156;15.954;2023-03-01T15:36:59;19.67;;;11.77;;
37231;SDS011;23125;48.156;15.954;2023-03-01T15:42:02;17.77;;;11.68;;
37231;SDS011;23125;48.156;15.954;2023-03-01T15:44:36;20.92;;;12.00;;
37231;SDS011;23125;48.156;15.954;2023-03-01T15:47:05;18.08;;;11.40;;
37231;SDS011;23125;48.156;15.954;2023-03-01T15:49:47;17.60;;;11.63;;
37231;SDS011;23125;48.156;15.954;2023-03-01T15:54:58;18.42;;;11.75;;
37231;SDS011;23125;48.156;15.954;2023-03-01T15:57:26;17.92;;;12.07;;
37231;SDS011;23125;48.156;15.954;2023-03-01T15:59:53;18.92;;;12.05;;
37231;SDS011;23125;48.156;15.954;2023-03-01T16:02:18;20.83;;;12.23;;
37231;SDS011;23125;48.156;15.954;2023-03-01T16:04:46;17.70;;;12.30;;
37231;SDS011;23125;48.156;15.954;2023-03-01T16:07:14;18.25;;;11.45;;
37231;SDS011;23125;48.156;15.954;2023-03-01T16:09:40;17.92;;;11.95;;
37231;SDS011;23125;48.156;15.954;2023-03-01T16:12:09;18.75;;;11.98;;
37231;SDS011;23125;48.156;15.954;2023-03-01T16:14:40;18.75;;;12.73;;
37231;SDS011;23125;48.156;15.954;2023-03-01T16:17:05;19.77;;;12.70;;
37231;SDS011;23125;48.156;15.954;2023-03-01T16:19:35;24.85;;;14.35;;
37231;SDS011;23125;48.156;15.954;2023-03-01T16:22:02;18.60;;;12.80;;
37231;SDS011;23125;48.156;15.954;2023-03-01T16:24:29;19.85;;;12.30;;
37231;SDS011;23125;48.156;15.954;2023-03-01T16:26:55;19.17;;;11.73;;
37231;SDS011;23125;48.156;15.954;2023-03-01T16:29:21;21.23;;;12.05;;
37231;SDS011;23125;48.156;15.954;2023-03-01T16:31:47;22.20;;;13.85;;